sensor_id;sensor_type;location;lat;lon;timestamp;P1;durP1;ratioP1;P2;durP2;ratioP2
51174;SDS011;37240;50.104;20.010;2022-10-16T00:02:35;25.48;;;12.48;;
51174;SDS011;37240;50.104;20.010;2022-10-16T00:07:35;21.45;;;12.52;;
51174;SDS011;37240;50.104;20.010;2022-10-16T00:12:36;26.05;;;14.43;;
51174;SDS011;37240;50.104;20.010;2022-10-16T00:17:36;23.98;;;14.77;;
51174;SDS011;37240;50.104;20.010;2022-10-16T00:22:37;33.95;;;15.38;;
51174;SDS011;37240;50.104;20.010;2022-10-16T00:27:37;40.33;;;17.70;;
51174;SDS011;37240;50.104;20.010;2022-10-16T00:32:38;27.77;;;15.50;;
51174;SDS011;37240;50.104;20.010;2022-10-16T00:37:38;34.35;;;16.83;;
51174;SDS011;37240;50.104;20.010;2022-10-16T00:42:39;30.25;;;16.52;;
51174;SDS011;37240;50.104;20.010;2022-10-16T00:47:40;29.52;;;15.27;;
51174;SDS011;37240;50.104;20.010;2022-10-16T00:52:44;25.83;;;15.02;;
51174;SDS011;37240;50.104;20.010;2022-10-16T00:57:48;31.45;;;15.45;;
51174;SDS011;37240;50.104;20.010;2022-10-16T01:02:53;33.88;;;15.30;;
51174;SDS011;37240;50.104;20.010;2022-10-16T01:08:04;30.85;;;15.70;;
51174;SDS011;37240;50.104;20.010;2022-10-16T01:13:32;34.33;;;16.70;;
51174;SDS011;37240;50.104;20.010;2022-10-16T01:18:37;41.77;;;18.17;;
51174;SDS011;37240;50.104;20.010;2022-10-16T01:24:12;28.33;;;15.98;;
51174;SDS011;37240;50.104;20.010;2022-10-16T01:29:17;34.80;;;16.40;;
51174;SDS011;37240;50.104;20.010;2022-10-16T01:34:33;31.98;;;16.63;;
51174;SDS011;37240;50.104;20.010;2022-10-16T01:39:37;28.80;;;16.50;;
51174;SDS011;37240;50.104;20.010;2022-10-16T01:44:41;35.35;;;16.45;;
51174;SDS011;37240;50.104;20.010;2022-10-16T01:49:45;36.95;;;16.42;;
51174;SDS011;37240;50.104;20.010;2022-10-16T01:54:47;29.48;;;15.93;;
51174;SDS011;37240;50.104;20.010;2022-10-16T01:59:52;31.52;;;16.17;;
51174;SDS011;37240;50.104;20.010;2022-10-16T02:05:02;36.92;;;17.33;;
51174;SDS011;37240;50.104;20.010;2022-10-16T02:10:09;36.20;;;18.60;;
51174;SDS011;37240;50.104;20.010;2022-10-16T02:15:10;34.25;;;19.27;;
51174;SDS011;37240;50.104;20.010;2022-10-16T02:20:11;38.35;;;18.25;;
51174;SDS011;37240;50.104;20.010;2022-10-16T02:25:17;39.63;;;19.15;;
51174;SDS011;37240;50.104;20.010;2022-10-16T02:36:04;41.65;;;19.13;;
51174;SDS011;37240;50.104;20.010;2022-10-16T02:41:05;43.05;;;18.60;;
51174;SDS011;37240;50.104;20.010;2022-10-16T02:46:06;36.05;;;18.60;;
51174;SDS011;37240;50.104;20.010;2022-10-16T02:51:07;47.63;;;20.42;;
51174;SDS011;37240;50.104;20.010;2022-10-16T02:56:07;42.60;;;20.38;;
51174;SDS011;37240;50.104;20.010;2022-10-16T03:01:08;43.50;;;20.92;;
51174;SDS011;37240;50.104;20.010;2022-10-16T03:06:08;41.95;;;21.05;;
51174;SDS011;37240;50.104;20.010;2022-10-16T03:11:09;37.92;;;17.52;;
51174;SDS011;37240;50.104;20.010;2022-10-16T03:16:09;35.92;;;18.25;;
51174;SDS011;37240;50.104;20.010;2022-10-16T03:21:10;31.33;;;16.45;;
51174;SDS011;37240;50.104;20.010;2022-10-16T03:26:10;35.08;;;17.15;;
51174;SDS011;37240;50.104;20.010;2022-10-16T03:31:11;34.28;;;16.88;;
51174;SDS011;37240;50.104;20.010;2022-10-16T03:36:12;25.60;;;14.60;;
51174;SDS011;37240;50.104;20.010;2022-10-16T03:41:13;35.22;;;16.85;;
51174;SDS011;37240;50.104;20.010;2022-10-16T03:46:13;32.28;;;17.05;;
51174;SDS011;37240;50.104;20.010;2022-10-16T03:51:14;34.78;;;16.67;;
51174;SDS011;37240;50.104;20.010;2022-10-16T03:56:15;31.63;;;16.95;;
51174;SDS011;37240;50.104;20.010;2022-10-16T04:01:15;35.97;;;17.25;;
51174;SDS011;37240;50.104;20.010;2022-10-16T04:06:16;38.35;;;15.50;;
51174;SDS011;37240;50.104;20.010;2022-10-16T04:11:16;39.30;;;18.60;;
51174;SDS011;37240;50.104;20.010;2022-10-16T04:16:17;44.58;;;18.52;;
51174;SDS011;37240;50.104;20.010;2022-10-16T04:21:17;43.47;;;17.52;;
51174;SDS011;37240;50.104;20.010;2022-10-16T04:26:18;35.78;;;16.45;;
51174;SDS011;37240;50.104;20.010;2022-10-16T04:31:18;40.35;;;17.65;;
51174;SDS011;37240;50.104;20.010;2022-10-16T04:36:19;32.33;;;16.98;;
51174;SDS011;37240;50.104;20.010;2022-10-16T04:41:19;33.72;;;17.45;;
51174;SDS011;37240;50.104;20.010;2022-10-16T04:46:20;35.92;;;17.40;;
51174;SDS011;37240;50.104;20.010;2022-10-16T04:51:20;41.08;;;18.65;;
51174;SDS011;37240;50.104;20.010;2022-10-16T04:56:21;40.63;;;19.38;;
51174;SDS011;37240;50.104;20.010;2022-10-16T05:01:21;42.88;;;19.00;;
51174;SDS011;37240;50.104;20.010;2022-10-16T05:06:22;46.72;;;19.60;;
51174;SDS011;37240;50.104;20.010;2022-10-16T05:11:23;39.47;;;17.80;;
51174;SDS011;37240;50.104;20.010;2022-10-16T05:16:23;40.42;;;18.23;;
51174;SDS011;37240;50.104;20.010;2022-10-16T05:21:24;32.75;;;16.70;;
51174;SDS011;37240;50.104;20.010;2022-10-16T05:26:24;28.85;;;17.15;;
51174;SDS011;37240;50.104;20.010;2022-10-16T05:31:25;34.85;;;16.52;;
51174;SDS011;37240;50.104;20.010;2022-10-16T05:36:25;40.92;;;17.73;;
51174;SDS011;37240;50.104;20.010;2022-10-16T05:41:26;34.20;;;17.58;;
51174;SDS011;37240;50.104;20.010;2022-10-16T05:46:26;36.22;;;17.95;;
51174;SDS011;37240;50.104;20.010;2022-10-16T05:51:27;37.47;;;18.00;;
51174;SDS011;37240;50.104;20.010;2022-10-16T05:56:28;39.85;;;19.55;;
51174;SDS011;37240;50.104;20.010;2022-10-16T06:01:28;30.90;;;16.65;;
51174;SDS011;37240;50.104;20.010;2022-10-16T06:06:29;26.55;;;16.30;;
51174;SDS011;37240;50.104;20.010;2022-10-16T06:11:31;26.58;;;15.10;;
51174;SDS011;37240;50.104;20.010;2022-10-16T06:16:33;26.55;;;15.57;;
51174;SDS011;37240;50.104;20.010;2022-10-16T06:21:35;27.48;;;15.35;;
51174;SDS011;37240;50.104;20.010;2022-10-16T06:26:35;33.50;;;16.30;;
51174;SDS011;37240;50.104;20.010;2022-10-16T06:31:37;36.22;;;17.95;;
51174;SDS011;37240;50.104;20.010;2022-10-16T06:36:39;50.10;;;23.20;;
51174;SDS011;37240;50.104;20.010;2022-10-16T06:41:39;34.55;;;19.40;;
51174;SDS011;37240;50.104;20.010;2022-10-16T06:46:40;35.50;;;18.27;;
51174;SDS011;37240;50.104;20.010;2022-10-16T06:51:40;27.75;;;15.63;;
51174;SDS011;37240;50.104;20.010;2022-10-16T06:56:41;24.98;;;14.27;;
51174;SDS011;37240;50.104;20.010;2022-10-16T07:01:41;27.95;;;14.50;;
51174;SDS011;37240;50.104;20.010;2022-10-16T07:06:42;27.63;;;13.75;;
51174;SDS011;37240;50.104;20.010;2022-10-16T07:11:43;27.85;;;12.82;;
51174;SDS011;37240;50.104;20.010;2022-10-16T07:16:43;24.73;;;14.05;;
51174;SDS011;37240;50.104;20.010;2022-10-16T07:21:44;25.98;;;13.35;;
51174;SDS011;37240;50.104;20.010;2022-10-16T07:26:45;27.75;;;13.68;;
51174;SDS011;37240;50.104;20.010;2022-10-16T07:31:46;25.70;;;13.93;;
51174;SDS011;37240;50.104;20.010;2022-10-16T07:36:51;18.05;;;10.88;;
51174;SDS011;37240;50.104;20.010;2022-10-16T07:41:51;14.80;;;9.18;;
51174;SDS011;37240;50.104;20.010;2022-10-16T07:46:52;9.32;;;6.88;;
51174;SDS011;37240;50.104;20.010;2022-10-16T07:51:52;9.93;;;6.47;;
51174;SDS011;37240;50.104;20.010;2022-10-16T07:56:53;6.82;;;5.43;;
51174;SDS011;37240;50.104;20.010;2022-10-16T08:01:53;7.97;;;5.85;;
51174;SDS011;37240;50.104;20.010;2022-10-16T08:06:54;8.27;;;5.95;;
51174;SDS011;37240;50.104;20.010;2022-10-16T08:11:54;13.02;;;6.05;;
51174;SDS011;37240;50.104;20.010;2022-10-16T08:16:55;7.45;;;6.13;;
51174;SDS011;37240;50.104;20.010;2022-10-16T08:21:55;7.53;;;5.47;;
51174;SDS011;37240;50.104;20.010;2022-10-16T08:26:56;8.32;;;6.20;;
51174;SDS011;37240;50.104;20.010;2022-10-16T08:31:56;8.90;;;6.28;;
51174;SDS011;37240;50.104;20.010;2022-10-16T08:36:57;9.25;;;6.25;;
51174;SDS011;37240;50.104;20.010;2022-10-16T08:47:17;8.53;;;5.90;;
51174;SDS011;37240;50.104;20.010;2022-10-16T08:52:23;7.72;;;6.25;;
51174;SDS011;37240;50.104;20.010;2022-10-16T08:57:29;9.45;;;6.80;;
51174;SDS011;37240;50.104;20.010;2022-10-16T09:02:31;11.93;;;5.63;;
51174;SDS011;37240;50.104;20.010;2022-10-16T09:17:40;13.02;;;6.03;;
51174;SDS011;37240;50.104;20.010;2022-10-16T09:28:04;9.70;;;5.75;;
51174;SDS011;37240;50.104;20.010;2022-10-16T09:33:05;10.20;;;5.75;;
51174;SDS011;37240;50.104;20.010;2022-10-16T09:38:07;6.35;;;5.57;;
51174;SDS011;37240;50.104;20.010;2022-10-16T09:48:18;6.38;;;5.28;;
51174;SDS011;37240;50.104;20.010;2022-10-16T09:53:20;12.50;;;6.18;;
51174;SDS011;37240;50.104;20.010;2022-10-16T09:58:21;6.97;;;5.80;;
51174;SDS011;37240;50.104;20.010;2022-10-16T10:03:39;8.57;;;5.53;;
51174;SDS011;37240;50.104;20.010;2022-10-16T10:08:41;9.90;;;6.00;;
51174;SDS011;37240;50.104;20.010;2022-10-16T10:13:52;12.45;;;5.63;;
51174;SDS011;37240;50.104;20.010;2022-10-16T10:19:03;8.23;;;5.97;;
51174;SDS011;37240;50.104;20.010;2022-10-16T10:24:03;8.43;;;6.03;;
51174;SDS011;37240;50.104;20.010;2022-10-16T10:29:07;11.75;;;6.07;;
51174;SDS011;37240;50.104;20.010;2022-10-16T10:34:42;8.13;;;6.05;;
51174;SDS011;37240;50.104;20.010;2022-10-16T10:45:41;7.20;;;5.70;;
51174;SDS011;37240;50.104;20.010;2022-10-16T10:50:49;9.77;;;6.35;;
51174;SDS011;37240;50.104;20.010;2022-10-16T11:06:59;8.02;;;5.90;;
51174;SDS011;37240;50.104;20.010;2022-10-16T11:12:09;5.87;;;4.87;;
51174;SDS011;37240;50.104;20.010;2022-10-16T11:17:19;6.30;;;4.95;;
51174;SDS011;37240;50.104;20.010;2022-10-16T11:22:42;9.38;;;5.78;;
51174;SDS011;37240;50.104;20.010;2022-10-16T11:33:04;8.15;;;4.50;;
51174;SDS011;37240;50.104;20.010;2022-10-16T11:38:30;7.38;;;5.32;;
51174;SDS011;37240;50.104;20.010;2022-10-16T11:49:11;12.30;;;4.55;;
51174;SDS011;37240;50.104;20.010;2022-10-16T11:54:42;7.67;;;4.73;;
51174;SDS011;37240;50.104;20.010;2022-10-16T12:00:08;5.75;;;4.80;;
51174;SDS011;37240;50.104;20.010;2022-10-16T12:10:25;19.63;;;7.18;;
51174;SDS011;37240;50.104;20.010;2022-10-16T12:15:28;11.82;;;7.00;;
51174;SDS011;37240;50.104;20.010;2022-10-16T12:20:31;11.10;;;5.80;;
51174;SDS011;37240;50.104;20.010;2022-10-16T12:25:36;8.70;;;5.35;;
51174;SDS011;37240;50.104;20.010;2022-10-16T12:30:39;12.30;;;5.30;;
51174;SDS011;37240;50.104;20.010;2022-10-16T12:35:44;9.73;;;5.07;;
51174;SDS011;37240;50.104;20.010;2022-10-16T12:40:46;11.48;;;6.00;;
51174;SDS011;37240;50.104;20.010;2022-10-16T12:46:03;7.15;;;4.95;;
51174;SDS011;37240;50.104;20.010;2022-10-16T12:51:54;7.60;;;5.18;;
51174;SDS011;37240;50.104;20.010;2022-10-16T12:56:34;5.60;;;4.75;;
51174;SDS011;37240;50.104;20.010;2022-10-16T13:17:13;6.22;;;4.85;;
51174;SDS011;37240;50.104;20.010;2022-10-16T13:32:44;4.88;;;4.35;;
51174;SDS011;37240;50.104;20.010;2022-10-16T13:37:50;3.95;;;3.20;;
51174;SDS011;37240;50.104;20.010;2022-10-16T13:42:52;4.72;;;3.58;;
51174;SDS011;37240;50.104;20.010;2022-10-16T13:48:03;4.65;;;3.30;;
51174;SDS011;37240;50.104;20.010;2022-10-16T13:53:13;5.18;;;3.28;;
51174;SDS011;37240;50.104;20.010;2022-10-16T13:58:14;6.63;;;3.80;;
51174;SDS011;37240;50.104;20.010;2022-10-16T14:03:15;4.03;;;3.53;;
51174;SDS011;37240;50.104;20.010;2022-10-16T14:08:16;4.47;;;4.07;;
51174;SDS011;37240;50.104;20.010;2022-10-16T14:13:18;6.07;;;4.20;;
51174;SDS011;37240;50.104;20.010;2022-10-16T14:18:23;5.93;;;3.70;;
51174;SDS011;37240;50.104;20.010;2022-10-16T14:23:30;3.53;;;3.22;;
51174;SDS011;37240;50.104;20.010;2022-10-16T14:28:36;4.63;;;3.40;;
51174;SDS011;37240;50.104;20.010;2022-10-16T14:33:37;6.03;;;3.90;;
51174;SDS011;37240;50.104;20.010;2022-10-16T14:38:38;4.63;;;3.85;;
51174;SDS011;37240;50.104;20.010;2022-10-16T14:43:41;5.40;;;3.97;;
51174;SDS011;37240;50.104;20.010;2022-10-16T14:48:43;7.63;;;3.70;;
51174;SDS011;37240;50.104;20.010;2022-10-16T14:53:47;4.40;;;2.83;;
51174;SDS011;37240;50.104;20.010;2022-10-16T14:58:49;3.83;;;3.42;;
51174;SDS011;37240;50.104;20.010;2022-10-16T15:03:52;3.70;;;3.40;;
51174;SDS011;37240;50.104;20.010;2022-10-16T15:08:53;5.80;;;4.07;;
51174;SDS011;37240;50.104;20.010;2022-10-16T15:13:53;6.32;;;4.10;;
51174;SDS011;37240;50.104;20.010;2022-10-16T15:18:54;5.68;;;3.97;;
51174;SDS011;37240;50.104;20.010;2022-10-16T15:23:54;4.43;;;3.85;;
51174;SDS011;37240;50.104;20.010;2022-10-16T15:28:55;7.38;;;4.55;;
51174;SDS011;37240;50.104;20.010;2022-10-16T15:33:56;6.63;;;3.83;;
51174;SDS011;37240;50.104;20.010;2022-10-16T15:38:57;5.38;;;4.15;;
51174;SDS011;37240;50.104;20.010;2022-10-16T15:43:57;9.98;;;4.47;;
51174;SDS011;37240;50.104;20.010;2022-10-16T15:48:58;7.18;;;4.70;;
51174;SDS011;37240;50.104;20.010;2022-10-16T15:53:59;5.43;;;4.78;;
51174;SDS011;37240;50.104;20.010;2022-10-16T15:59:00;5.28;;;4.20;;
51174;SDS011;37240;50.104;20.010;2022-10-16T16:04:00;7.65;;;5.28;;
51174;SDS011;37240;50.104;20.010;2022-10-16T16:09:01;8.10;;;5.15;;
51174;SDS011;37240;50.104;20.010;2022-10-16T16:14:01;7.80;;;5.07;;
51174;SDS011;37240;50.104;20.010;2022-10-16T16:19:03;9.68;;;5.05;;
51174;SDS011;37240;50.104;20.010;2022-10-16T16:24:04;8.30;;;5.80;;
51174;SDS011;37240;50.104;20.010;2022-10-16T16:29:05;6.18;;;5.03;;
51174;SDS011;37240;50.104;20.010;2022-10-16T16:34:06;5.70;;;4.93;;
51174;SDS011;37240;50.104;20.010;2022-10-16T16:39:07;13.18;;;5.45;;
51174;SDS011;37240;50.104;20.010;2022-10-16T16:44:08;7.32;;;5.15;;
51174;SDS011;37240;50.104;20.010;2022-10-16T16:49:11;10.18;;;5.63;;
51174;SDS011;37240;50.104;20.010;2022-10-16T16:54:12;6.85;;;5.25;;
51174;SDS011;37240;50.104;20.010;2022-10-16T16:59:13;8.23;;;5.57;;
51174;SDS011;37240;50.104;20.010;2022-10-16T17:04:15;13.68;;;5.60;;
51174;SDS011;37240;50.104;20.010;2022-10-16T17:09:16;12.35;;;6.68;;
51174;SDS011;37240;50.104;20.010;2022-10-16T17:14:16;11.20;;;6.43;;
51174;SDS011;37240;50.104;20.010;2022-10-16T17:19:17;12.43;;;7.22;;
51174;SDS011;37240;50.104;20.010;2022-10-16T17:24:19;15.15;;;7.30;;
51174;SDS011;37240;50.104;20.010;2022-10-16T17:29:19;12.20;;;6.88;;
51174;SDS011;37240;50.104;20.010;2022-10-16T17:34:20;15.48;;;7.80;;
51174;SDS011;37240;50.104;20.010;2022-10-16T17:39:20;9.35;;;7.13;;
51174;SDS011;37240;50.104;20.010;2022-10-16T17:44:21;13.25;;;7.95;;
51174;SDS011;37240;50.104;20.010;2022-10-16T17:49:21;11.77;;;7.30;;
51174;SDS011;37240;50.104;20.010;2022-10-16T17:54:22;15.88;;;7.82;;
51174;SDS011;37240;50.104;20.010;2022-10-16T17:59:22;18.13;;;7.13;;
51174;SDS011;37240;50.104;20.010;2022-10-16T18:04:23;14.35;;;7.55;;
51174;SDS011;37240;50.104;20.010;2022-10-16T18:09:23;12.60;;;7.60;;
51174;SDS011;37240;50.104;20.010;2022-10-16T18:14:25;19.25;;;8.95;;
51174;SDS011;37240;50.104;20.010;2022-10-16T18:19:27;14.90;;;8.57;;
51174;SDS011;37240;50.104;20.010;2022-10-16T18:24:28;16.50;;;8.95;;
51174;SDS011;37240;50.104;20.010;2022-10-16T18:29:28;18.88;;;8.45;;
51174;SDS011;37240;50.104;20.010;2022-10-16T18:34:29;11.20;;;7.93;;
51174;SDS011;37240;50.104;20.010;2022-10-16T18:39:29;13.27;;;8.93;;
51174;SDS011;37240;50.104;20.010;2022-10-16T18:44:30;15.75;;;8.93;;
51174;SDS011;37240;50.104;20.010;2022-10-16T18:49:30;17.05;;;10.63;;
51174;SDS011;37240;50.104;20.010;2022-10-16T18:54:31;16.30;;;10.48;;
51174;SDS011;37240;50.104;20.010;2022-10-16T18:59:31;16.48;;;10.23;;
51174;SDS011;37240;50.104;20.010;2022-10-16T19:04:32;21.05;;;9.63;;
51174;SDS011;37240;50.104;20.010;2022-10-16T19:09:32;20.17;;;9.57;;
51174;SDS011;37240;50.104;20.010;2022-10-16T19:14:33;16.05;;;10.35;;
51174;SDS011;37240;50.104;20.010;2022-10-16T19:19:33;27.98;;;16.30;;
51174;SDS011;37240;50.104;20.010;2022-10-16T19:24:34;21.50;;;12.25;;
51174;SDS011;37240;50.104;20.010;2022-10-16T19:29:34;17.17;;;10.02;;
51174;SDS011;37240;50.104;20.010;2022-10-16T19:34:35;18.33;;;10.70;;
51174;SDS011;37240;50.104;20.010;2022-10-16T19:39:36;21.30;;;12.15;;
51174;SDS011;37240;50.104;20.010;2022-10-16T19:44:37;22.17;;;12.63;;
51174;SDS011;37240;50.104;20.010;2022-10-16T19:49:37;19.65;;;10.80;;
51174;SDS011;37240;50.104;20.010;2022-10-16T19:54:38;22.88;;;12.27;;
51174;SDS011;37240;50.104;20.010;2022-10-16T19:59:38;18.73;;;10.93;;
51174;SDS011;37240;50.104;20.010;2022-10-16T20:04:39;17.65;;;10.98;;
51174;SDS011;37240;50.104;20.010;2022-10-16T20:09:39;22.38;;;11.65;;
51174;SDS011;37240;50.104;20.010;2022-10-16T20:14:40;20.88;;;12.30;;
51174;SDS011;37240;50.104;20.010;2022-10-16T20:19:41;25.08;;;12.40;;
51174;SDS011;37240;50.104;20.010;2022-10-16T20:24:41;28.08;;;13.07;;
51174;SDS011;37240;50.104;20.010;2022-10-16T20:29:42;22.73;;;12.63;;
51174;SDS011;37240;50.104;20.010;2022-10-16T20:34:42;20.83;;;12.82;;
51174;SDS011;37240;50.104;20.010;2022-10-16T20:39:43;19.77;;;12.73;;
51174;SDS011;37240;50.104;20.010;2022-10-16T20:44:43;30.45;;;13.85;;
51174;SDS011;37240;50.104;20.010;2022-10-16T20:49:44;23.92;;;13.57;;
51174;SDS011;37240;50.104;20.010;2022-10-16T20:54:44;24.40;;;13.55;;
51174;SDS011;37240;50.104;20.010;2022-10-16T20:59:45;27.92;;;13.32;;
51174;SDS011;37240;50.104;20.010;2022-10-16T21:04:47;22.13;;;13.13;;
51174;SDS011;37240;50.104;20.010;2022-10-16T21:09:48;23.83;;;12.02;;
51174;SDS011;37240;50.104;20.010;2022-10-16T21:14:48;22.02;;;12.23;;
51174;SDS011;37240;50.104;20.010;2022-10-16T21:19:49;29.75;;;13.35;;
51174;SDS011;37240;50.104;20.010;2022-10-16T21:24:50;26.73;;;12.65;;
51174;SDS011;37240;50.104;20.010;2022-10-16T21:29:51;35.55;;;13.30;;
51174;SDS011;37240;50.104;20.010;2022-10-16T21:34:52;30.85;;;13.13;;
51174;SDS011;37240;50.104;20.010;2022-10-16T21:39:55;23.45;;;12.70;;
51174;SDS011;37240;50.104;20.010;2022-10-16T21:44:56;29.63;;;14.55;;
51174;SDS011;37240;50.104;20.010;2022-10-16T21:49:56;30.15;;;15.40;;
51174;SDS011;37240;50.104;20.010;2022-10-16T21:54:57;28.23;;;14.23;;
51174;SDS011;37240;50.104;20.010;2022-10-16T21:59:57;25.33;;;14.65;;
51174;SDS011;37240;50.104;20.010;2022-10-16T22:04:58;27.33;;;14.45;;
51174;SDS011;37240;50.104;20.010;2022-10-16T22:09:58;34.40;;;16.15;;
51174;SDS011;37240;50.104;20.010;2022-10-16T22:14:59;33.35;;;15.20;;
51174;SDS011;37240;50.104;20.010;2022-10-16T22:19:59;31.05;;;15.25;;
51174;SDS011;37240;50.104;20.010;2022-10-16T22:25:00;31.95;;;15.90;;
51174;SDS011;37240;50.104;20.010;2022-10-16T22:30:01;30.23;;;15.13;;
51174;SDS011;37240;50.104;20.010;2022-10-16T22:35:01;30.10;;;14.80;;
51174;SDS011;37240;50.104;20.010;2022-10-16T22:40:02;28.15;;;14.82;;
51174;SDS011;37240;50.104;20.010;2022-10-16T22:45:03;29.17;;;14.48;;
51174;SDS011;37240;50.104;20.010;2022-10-16T22:50:04;34.28;;;15.85;;
51174;SDS011;37240;50.104;20.010;2022-10-16T22:55:05;34.92;;;15.55;;
51174;SDS011;37240;50.104;20.010;2022-10-16T23:00:07;27.85;;;14.45;;
51174;SDS011;37240;50.104;20.010;2022-10-16T23:05:09;35.55;;;14.55;;
51174;SDS011;37240;50.104;20.010;2022-10-16T23:10:09;31.88;;;14.85;;
51174;SDS011;37240;50.104;20.010;2022-10-16T23:15:10;26.17;;;14.10;;
51174;SDS011;37240;50.104;20.010;2022-10-16T23:20:11;29.50;;;14.90;;
51174;SDS011;37240;50.104;20.010;2022-10-16T23:25:11;27.35;;;14.63;;
51174;SDS011;37240;50.104;20.010;2022-10-16T23:30:12;29.33;;;14.50;;
51174;SDS011;37240;50.104;20.010;2022-10-16T23:35:12;28.55;;;14.20;;
51174;SDS011;37240;50.104;20.010;2022-10-16T23:40:13;25.70;;;13.32;;
51174;SDS011;37240;50.104;20.010;2022-10-16T23:45:14;31.02;;;15.60;;
51174;SDS011;37240;50.104;20.010;2022-10-16T23:50:14;36.28;;;17.67;;
51174;SDS011;37240;50.104;20.010;2022-10-16T23:55:15;30.90;;;16.05;;
